createdAt,value
2022-10-29T00:01:23.092Z,22.95
2022-10-29T00:03:50.976Z,21.40
2022-10-29T00:06:19.363Z,19.75
2022-10-29T00:09:05.876Z,17.77
2022-10-29T00:11:34.849Z,22.02
2022-10-29T00:14:03.156Z,16.48
2022-10-29T00:16:38.141Z,21.58
2022-10-29T00:19:06.690Z,19.00
2022-10-29T00:21:35.397Z,20.33
2022-10-29T00:24:21.593Z,21.58
2022-10-29T00:26:49.621Z,17.83
2022-10-29T00:29:35.963Z,23.30
2022-10-29T00:32:04.668Z,19.95
2022-10-29T00:34:50.776Z,20.25
2022-10-29T00:37:36.664Z,23.10
2022-10-29T00:40:05.469Z,18.95
2022-10-29T00:42:33.059Z,19.63
2022-10-29T00:45:20.653Z,19.60
2022-10-29T00:48:06.950Z,21.23
2022-10-29T00:50:54.300Z,19.15
2022-10-29T00:53:31.121Z,19.45
2022-10-29T00:55:59.611Z,23.25
2022-10-29T00:58:28.288Z,26.38
2022-10-29T01:01:14.645Z,21.17
2022-10-29T01:03:43.621Z,24.45
2022-10-29T01:06:31.940Z,22.92
2022-10-29T01:09:00.109Z,21.67
2022-10-29T01:11:54.062Z,20.05
2022-10-29T01:14:56.849Z,17.35
2022-10-29T01:17:27.978Z,25.00
2022-10-29T01:20:22.201Z,21.67
2022-10-29T01:23:22.365Z,19.35
2022-10-29T01:26:11.870Z,16.58
2022-10-29T01:29:04.211Z,21.83
2022-10-29T01:31:57.400Z,22.55
2022-10-29T01:34:50.075Z,19.60
2022-10-29T01:37:48.113Z,23.38
2022-10-29T01:40:18.113Z,22.38
2022-10-29T01:43:03.512Z,21.95
2022-10-29T01:45:44.020Z,21.83
2022-10-29T01:48:19.414Z,17.90
2022-10-29T01:50:49.490Z,22.58
2022-10-29T01:53:37.344Z,18.50
2022-10-29T01:56:05.745Z,21.13
2022-10-29T01:58:34.953Z,22.63
2022-10-29T02:01:15.678Z,18.85
2022-10-29T02:04:25.564Z,22.80
2022-10-29T02:07:11.433Z,18.63
2022-10-29T02:10:06.274Z,22.30
2022-10-29T02:12:40.960Z,21.38
2022-10-29T02:15:13.755Z,17.38
2022-10-29T02:17:42.331Z,24.25
2022-10-29T02:20:12.144Z,19.48
2022-10-29T02:22:58.256Z,18.02
2022-10-29T02:25:27.844Z,26.02
2022-10-29T02:27:59.815Z,18.58
2022-10-29T02:30:28.496Z,22.55
2022-10-29T02:32:56.675Z,18.60
2022-10-29T02:35:42.716Z,19.25
2022-10-29T02:38:10.492Z,21.75
2022-10-29T02:40:38.198Z,24.27
2022-10-29T02:43:05.998Z,22.30
2022-10-29T02:45:33.775Z,21.77
2022-10-29T02:48:01.532Z,20.25
2022-10-29T02:50:29.410Z,22.70
2022-10-29T02:52:57.357Z,21.17
2022-10-29T02:55:25.090Z,19.88
2022-10-29T02:57:53.031Z,18.70
2022-10-29T03:00:39.090Z,20.90
2022-10-29T03:03:07.095Z,21.98
2022-10-29T03:05:35.405Z,23.23
2022-10-29T03:08:02.654Z,18.77
2022-10-29T03:10:30.395Z,20.58
2022-10-29T03:13:02.067Z,17.40
2022-10-29T03:15:29.421Z,20.52
2022-10-29T03:18:15.460Z,18.83
2022-10-29T03:21:01.252Z,19.00
2022-10-29T03:23:29.126Z,20.42
2022-10-29T03:25:57.401Z,19.98
2022-10-29T03:28:28.076Z,16.83
2022-10-29T03:31:13.646Z,23.52
2022-10-29T03:33:41.611Z,24.08
2022-10-29T03:36:09.530Z,16.45
2022-10-29T03:38:37.111Z,18.35
2022-10-29T03:41:10.617Z,18.48
2022-10-29T03:43:57.252Z,22.85
2022-10-29T03:46:25.516Z,22.98
2022-10-29T03:48:53.279Z,21.65
2022-10-29T03:51:21.076Z,17.92
2022-10-29T03:53:49.509Z,19.67
2022-10-29T03:56:17.453Z,20.42
2022-10-29T03:58:45.447Z,19.85
2022-10-29T04:01:13.199Z,19.33
2022-10-29T04:03:42.675Z,19.17
2022-10-29T04:06:12.740Z,13.85
2022-10-29T04:08:41.228Z,14.23
2022-10-29T04:11:11.175Z,18.55
2022-10-29T04:13:39.903Z,16.65
2022-10-29T04:16:08.282Z,21.35
2022-10-29T04:18:35.941Z,19.38
2022-10-29T04:27:21.298Z,19.70
2022-10-29T04:29:31.295Z,13.85
2022-10-29T04:32:48.294Z,16.90
2022-10-29T04:35:20.859Z,16.27
2022-10-29T04:38:13.084Z,14.23
2022-10-29T04:41:03.444Z,18.15
2022-10-29T04:43:35.634Z,16.77
2022-10-29T04:46:24.634Z,20.15
2022-10-29T04:48:57.185Z,18.25
2022-10-29T04:51:29.510Z,19.73
2022-10-29T04:53:58.959Z,23.00
2022-10-29T04:56:26.656Z,17.20
2022-10-29T04:58:54.443Z,14.90
2022-10-29T05:01:22.374Z,20.63
2022-10-29T05:04:08.512Z,16.80
2022-10-29T05:06:36.659Z,12.45
2022-10-29T05:09:04.995Z,22.98
2022-10-29T05:11:51.104Z,13.45
2022-10-29T05:14:36.790Z,16.30
2022-10-29T05:17:04.974Z,24.48
2022-10-29T05:19:32.924Z,16.20
2022-10-29T05:22:00.850Z,16.00
2022-10-29T05:24:46.597Z,19.52
2022-10-29T05:27:32.652Z,19.70
2022-10-29T05:30:00.734Z,17.90
2022-10-29T05:32:46.901Z,15.48
2022-10-29T05:35:14.971Z,17.42
2022-10-29T05:37:42.746Z,17.20
2022-10-29T05:40:29.189Z,20.83
2022-10-29T05:42:57.733Z,18.50
2022-10-29T05:45:25.554Z,17.20
2022-10-29T05:48:02.031Z,17.90
2022-10-29T05:50:30.575Z,16.08
2022-10-29T05:53:16.944Z,16.05
2022-10-29T05:56:03.381Z,14.10
2022-10-29T05:58:50.878Z,16.48
2022-10-29T06:01:22.055Z,16.20
2022-10-29T06:04:08.476Z,15.35
2022-10-29T06:06:54.769Z,20.77
2022-10-29T06:09:23.020Z,20.85
2022-10-29T06:11:50.465Z,16.52
2022-10-29T06:14:18.311Z,15.18
2022-10-29T06:16:45.945Z,21.23
2022-10-29T06:19:14.282Z,16.65
2022-10-29T06:21:42.132Z,20.25
2022-10-29T06:24:28.349Z,18.35
2022-10-29T06:26:56.380Z,18.30
2022-10-29T06:29:42.065Z,13.80
2022-10-29T06:32:10.595Z,15.50
2022-10-29T06:34:38.237Z,16.05
2022-10-29T06:37:06.864Z,19.42
2022-10-29T06:39:34.723Z,11.63
2022-10-29T06:42:20.985Z,22.23
2022-10-29T06:44:48.935Z,19.25
2022-10-29T06:47:16.577Z,16.50
2022-10-29T06:50:02.872Z,20.98
2022-10-29T06:52:31.596Z,16.42
2022-10-29T06:55:18.030Z,18.63
2022-10-29T06:57:45.877Z,21.15
2022-10-29T07:00:13.795Z,20.15
2022-10-29T07:02:41.974Z,14.35
2022-10-29T07:05:09.757Z,13.52
2022-10-29T07:07:37.607Z,12.63
2022-10-29T07:10:05.655Z,17.85
2022-10-29T07:12:48.124Z,15.10
2022-10-29T07:15:34.500Z,14.55
2022-10-29T07:18:07.103Z,15.35
2022-10-29T07:20:40.019Z,20.23
2022-10-29T07:23:08.785Z,19.75
2022-10-29T07:25:38.186Z,17.20
2022-10-29T07:28:23.619Z,13.77
2022-10-29T07:30:52.589Z,15.35
2022-10-29T07:33:20.506Z,18.15
2022-10-29T07:35:48.326Z,19.80
2022-10-29T07:38:16.593Z,18.95
2022-10-29T07:40:49.593Z,16.40
2022-10-29T07:43:18.709Z,13.20
2022-10-29T07:45:49.944Z,15.80
2022-10-29T07:48:19.328Z,14.60
2022-10-29T07:50:47.995Z,14.80
2022-10-29T07:53:16.509Z,19.85
2022-10-29T07:55:44.292Z,17.05
2022-10-29T07:58:13.055Z,16.52
2022-10-29T08:00:43.771Z,16.95
2022-10-29T08:03:13.003Z,15.25
2022-10-29T08:05:42.863Z,13.88
2022-10-29T08:08:11.076Z,16.42
2022-10-29T08:10:39.120Z,16.90
2022-10-29T08:13:07.421Z,17.13
2022-10-29T08:15:35.315Z,15.18
2022-10-29T08:18:05.084Z,22.40
2022-10-29T08:20:33.639Z,16.35
2022-10-29T08:23:01.974Z,20.35
2022-10-29T08:25:30.312Z,17.42
2022-10-29T08:28:03.031Z,15.07
2022-10-29T08:30:32.537Z,16.65
2022-10-29T08:33:20.161Z,19.48
2022-10-29T08:35:49.311Z,19.08
2022-10-29T08:38:17.240Z,14.63
2022-10-29T08:41:03.942Z,13.15
2022-10-29T08:43:49.816Z,21.13
2022-10-29T08:46:46.860Z,15.93
2022-10-29T08:49:38.546Z,19.20
2022-10-29T08:52:11.796Z,13.85
2022-10-29T08:55:18.043Z,16.67
2022-10-29T08:58:31.413Z,17.73
2022-10-29T09:01:02.219Z,19.15
2022-10-29T09:03:30.482Z,18.40
2022-10-29T09:06:09.045Z,20.38
2022-10-29T09:08:47.782Z,19.17
2022-10-29T09:11:36.185Z,26.02
2022-10-29T09:14:21.791Z,22.80
2022-10-29T09:16:54.463Z,27.20
2022-10-29T09:20:01.511Z,19.83
2022-10-29T09:22:46.120Z,22.38
2022-10-29T09:25:26.418Z,21.80
2022-10-29T09:28:07.685Z,15.68
2022-10-29T09:31:07.051Z,31.00
2022-10-29T09:33:35.530Z,24.50
2022-10-29T09:36:12.366Z,17.30
2022-10-29T09:39:04.789Z,22.92
2022-10-29T09:41:34.630Z,21.30
2022-10-29T09:44:23.946Z,18.60
2022-10-29T09:47:22.115Z,24.90
2022-10-29T09:50:15.664Z,28.08
2022-10-29T09:53:02.018Z,25.15
2022-10-29T09:55:44.793Z,26.50
2022-10-29T09:58:21.060Z,22.60
2022-10-29T10:00:50.451Z,27.05
2022-10-29T10:03:37.600Z,28.08
2022-10-29T10:06:10.265Z,25.70
2022-10-29T10:09:03.425Z,39.60
2022-10-29T10:11:51.051Z,30.98
2022-10-29T10:14:37.876Z,35.58
2022-10-29T10:17:24.445Z,33.10
2022-10-29T10:19:52.694Z,38.67
2022-10-29T10:22:47.539Z,38.78
2022-10-29T10:25:39.306Z,36.00
2022-10-29T10:28:34.869Z,36.97
2022-10-29T10:31:12.950Z,47.63
2022-10-29T10:33:55.561Z,42.30
2022-10-29T10:36:27.725Z,47.10
2022-10-29T10:39:00.821Z,50.10
2022-10-29T10:41:47.327Z,38.55
2022-10-29T10:44:15.370Z,56.67
2022-10-29T10:47:07.059Z,33.53
2022-10-29T10:52:41.492Z,35.03
2022-10-29T10:55:22.958Z,34.83
2022-10-29T10:58:10.804Z,38.17
2022-10-29T11:00:51.112Z,31.13
2022-10-29T11:06:24.080Z,30.00
2022-10-29T11:09:11.816Z,30.35
2022-10-29T11:11:44.688Z,29.52
2022-10-29T11:14:43.634Z,31.55
2022-10-29T11:17:42.355Z,24.10
2022-10-29T11:20:20.133Z,25.90
2022-10-29T11:23:48.626Z,21.55
2022-10-29T11:26:29.391Z,29.48
2022-10-29T11:29:14.566Z,23.20
2022-10-29T11:31:59.550Z,22.55
2022-10-29T11:35:05.303Z,25.40
2022-10-29T11:37:59.841Z,26.30
2022-10-29T11:41:24.881Z,20.73
2022-10-29T11:43:53.278Z,24.00
2022-10-29T11:47:10.361Z,22.98
2022-10-29T11:50:17.566Z,22.73
2022-10-29T11:53:10.203Z,20.58
2022-10-29T11:55:41.662Z,20.90
2022-10-29T11:58:49.175Z,22.73
2022-10-29T12:01:54.470Z,23.85
2022-10-29T12:04:33.893Z,22.15
2022-10-29T12:07:29.823Z,15.40
2022-10-29T12:10:35.824Z,30.02
2022-10-29T12:13:50.112Z,21.27
2022-10-29T12:16:30.222Z,17.83
2022-10-29T12:19:23.156Z,27.63
2022-10-29T12:22:09.996Z,20.90
2022-10-29T12:25:03.034Z,19.90
2022-10-29T12:28:08.265Z,21.90
2022-10-29T12:30:58.757Z,23.58
2022-10-29T12:33:45.889Z,22.92
2022-10-29T12:36:25.671Z,30.15
2022-10-29T12:39:31.262Z,22.13
2022-10-29T12:42:22.483Z,23.73
2022-10-29T12:45:32.464Z,26.02
2022-10-29T12:48:32.131Z,22.23
2022-10-29T12:51:29.521Z,24.27
2022-10-29T12:54:23.725Z,27.95
2022-10-29T12:56:52.398Z,27.52
2022-10-29T12:59:24.466Z,22.98
2022-10-29T13:02:39.085Z,23.63
2022-10-29T13:05:44.371Z,21.02
2022-10-29T13:08:23.549Z,24.60
2022-10-29T13:10:53.281Z,23.38
2022-10-29T13:13:26.269Z,19.67
2022-10-29T13:16:25.582Z,16.55
2022-10-29T13:19:15.137Z,23.23
2022-10-29T13:22:04.331Z,20.63
2022-10-29T13:25:28.311Z,21.10
2022-10-29T13:28:14.653Z,19.50
2022-10-29T13:30:45.179Z,17.55
2022-10-29T13:33:31.804Z,22.48
2022-10-29T13:36:02.779Z,20.70
2022-10-29T13:39:04.312Z,20.73
2022-10-29T13:41:49.320Z,19.05
2022-10-29T13:44:21.810Z,22.25
2022-10-29T13:47:04.655Z,21.73
2022-10-29T13:49:41.314Z,18.33
2022-10-29T13:52:09.800Z,18.42
2022-10-29T13:55:02.245Z,13.45
2022-10-29T13:57:54.729Z,21.90
2022-10-29T14:00:42.944Z,20.52
2022-10-29T14:03:35.912Z,21.73
2022-10-29T14:06:41.176Z,14.55
2022-10-29T14:09:14.089Z,18.13
2022-10-29T14:11:53.765Z,16.35
2022-10-29T14:14:48.394Z,18.75
2022-10-29T14:17:18.009Z,16.08
2022-10-29T14:19:51.095Z,15.93
2022-10-29T14:22:38.610Z,16.20
2022-10-29T14:25:24.888Z,25.80
2022-10-29T14:28:16.300Z,17.80
2022-10-29T14:30:48.554Z,21.48
2022-10-29T14:33:30.723Z,21.90
2022-10-29T14:36:21.048Z,18.80
2022-10-29T14:38:54.372Z,18.10
2022-10-29T14:41:23.090Z,16.23
2022-10-29T14:43:56.641Z,25.33
2022-10-29T14:46:27.088Z,19.08
2022-10-29T14:49:00.707Z,22.02
2022-10-29T14:51:32.211Z,13.40
2022-10-29T14:54:22.263Z,18.88
2022-10-29T14:56:54.502Z,16.95
2022-10-29T14:59:26.436Z,20.83
2022-10-29T15:02:05.472Z,19.75
2022-10-29T15:04:50.311Z,19.55
2022-10-29T15:07:37.958Z,21.08
2022-10-29T15:10:24.216Z,15.75
2022-10-29T15:12:52.521Z,19.80
2022-10-29T15:15:27.961Z,16.05
2022-10-29T15:18:01.554Z,20.55
2022-10-29T15:20:46.246Z,16.58
2022-10-29T15:23:38.313Z,18.77
2022-10-29T15:26:08.751Z,23.73
2022-10-29T15:28:44.650Z,16.50
2022-10-29T15:31:18.638Z,16.60
2022-10-29T15:34:19.169Z,19.85
2022-10-29T15:36:50.774Z,19.63
2022-10-29T15:39:27.104Z,18.02
2022-10-29T15:41:57.256Z,19.52
2022-10-29T15:44:42.781Z,17.65
2022-10-29T15:47:28.888Z,23.48
2022-10-29T15:49:57.196Z,18.23
2022-10-29T15:52:45.043Z,19.80
2022-10-29T15:55:27.395Z,15.15
2022-10-29T15:58:16.322Z,30.33
2022-10-29T16:00:44.247Z,18.88
2022-10-29T16:03:14.173Z,26.70
2022-10-29T16:05:42.634Z,23.15
2022-10-29T16:08:19.118Z,20.08
2022-10-29T16:10:46.332Z,18.80
2022-10-29T16:13:13.856Z,19.63
2022-10-29T16:15:59.513Z,17.77
2022-10-29T16:18:46.377Z,19.77
2022-10-29T16:21:17.569Z,24.35
2022-10-29T16:23:45.581Z,24.90
2022-10-29T16:26:18.213Z,20.38
2022-10-29T16:28:45.555Z,20.98
2022-10-29T16:31:20.626Z,18.55
2022-10-29T16:33:48.923Z,29.95
2022-10-29T16:36:16.726Z,25.05
2022-10-29T16:39:02.614Z,27.42
2022-10-29T16:41:30.997Z,24.52
2022-10-29T16:43:58.282Z,24.15
2022-10-29T16:46:25.998Z,24.85
2022-10-29T16:48:53.390Z,19.25
2022-10-29T16:51:20.750Z,23.73
2022-10-29T16:53:48.565Z,24.77
2022-10-29T16:56:15.934Z,23.35
2022-10-29T16:58:43.331Z,25.38
2022-10-29T17:01:11.008Z,23.70
2022-10-29T17:03:41.530Z,20.55
2022-10-29T17:06:27.127Z,20.85
2022-10-29T17:08:54.666Z,22.10
2022-10-29T17:11:21.853Z,20.55
2022-10-29T17:13:49.293Z,22.27
2022-10-29T17:16:19.041Z,21.48
2022-10-29T17:19:05.151Z,22.85
2022-10-29T17:21:36.276Z,23.38
2022-10-29T17:24:21.866Z,25.15
2022-10-29T17:26:49.284Z,21.63
2022-10-29T17:29:36.396Z,21.27
2022-10-29T17:32:05.594Z,19.35
2022-10-29T17:34:51.190Z,24.58
2022-10-29T17:37:18.804Z,26.38
2022-10-29T17:39:46.176Z,24.65
2022-10-29T17:42:13.739Z,31.98
2022-10-29T17:44:40.832Z,23.35
2022-10-29T17:47:08.167Z,22.63
2022-10-29T17:49:35.683Z,26.05
2022-10-29T17:52:03.255Z,32.47
2022-10-29T17:54:30.419Z,26.73
2022-10-29T17:57:15.792Z,38.50
2022-10-29T17:59:43.174Z,35.45
2022-10-29T18:02:11.569Z,27.08
2022-10-29T18:04:39.491Z,89.57
2022-10-29T18:07:06.598Z,37.67
2022-10-29T18:09:34.142Z,30.33
2022-10-29T18:12:01.339Z,26.48
2022-10-29T18:14:28.903Z,28.63
2022-10-29T18:16:56.558Z,33.65
2022-10-29T18:19:42.274Z,26.17
2022-10-29T18:22:27.969Z,30.83
2022-10-29T18:24:55.482Z,31.63
2022-10-29T18:27:22.770Z,32.78
2022-10-29T18:30:09.364Z,28.02
2022-10-29T18:32:37.022Z,30.20
2022-10-29T18:35:04.916Z,33.42
2022-10-29T18:37:32.164Z,26.73
2022-10-29T18:40:17.925Z,31.40
2022-10-29T18:42:45.469Z,35.15
2022-10-29T18:45:13.376Z,66.72
2022-10-29T18:47:40.623Z,108.55
2022-10-29T18:50:26.416Z,128.95
2022-10-29T18:53:12.038Z,66.55
2022-10-29T18:55:39.758Z,65.20
2022-10-29T18:58:06.988Z,53.83
2022-10-29T19:00:34.555Z,50.58
2022-10-29T19:03:01.864Z,56.95
2022-10-29T19:05:29.405Z,44.13
2022-10-29T19:07:57.059Z,59.20
2022-10-29T19:10:24.796Z,44.22
2022-10-29T19:12:51.993Z,49.83
2022-10-29T19:15:39.172Z,43.22
2022-10-29T19:18:06.829Z,47.80
2022-10-29T19:20:36.876Z,40.38
2022-10-29T19:23:22.783Z,44.47
2022-10-29T19:26:13.748Z,68.18
2022-10-29T19:28:41.829Z,106.03
2022-10-29T19:31:28.942Z,57.65
2022-10-29T19:34:14.704Z,72.03
2022-10-29T19:36:42.288Z,67.75
2022-10-29T19:39:09.585Z,64.45
2022-10-29T19:41:54.965Z,41.90
2022-10-29T19:44:40.717Z,44.55
2022-10-29T19:47:08.326Z,38.85
2022-10-29T19:49:35.523Z,53.05
2022-10-29T19:52:03.013Z,48.35
2022-10-29T19:54:30.298Z,44.97
2022-10-29T19:56:58.396Z,45.78
2022-10-29T19:59:25.641Z,40.97
2022-10-29T20:01:53.320Z,40.40
2022-10-29T20:04:20.699Z,40.97
2022-10-29T20:07:06.306Z,37.42
2022-10-29T20:09:33.861Z,38.42
2022-10-29T20:12:01.206Z,37.05
2022-10-29T20:14:29.365Z,41.67
2022-10-29T20:17:15.002Z,33.08
2022-10-29T20:19:43.228Z,39.92
2022-10-29T20:22:10.823Z,38.80
2022-10-29T20:24:38.345Z,40.22
2022-10-29T20:27:05.953Z,32.97
2022-10-29T20:29:33.349Z,36.13
2022-10-29T20:32:00.906Z,35.15
2022-10-29T20:34:28.627Z,50.78
2022-10-29T20:36:56.301Z,39.85
2022-10-29T20:39:24.465Z,43.88
2022-10-29T20:41:52.437Z,37.60
2022-10-29T20:44:19.810Z,39.10
2022-10-29T20:46:47.079Z,35.25
2022-10-29T20:49:14.625Z,38.95
2022-10-29T20:51:41.949Z,45.28
2022-10-29T20:54:09.219Z,38.75
2022-10-29T20:56:36.722Z,38.80
2022-10-29T20:59:22.572Z,42.03
2022-10-29T21:02:10.708Z,37.05
2022-10-29T21:04:39.338Z,35.65
2022-10-29T21:07:25.466Z,51.83
2022-10-29T21:09:52.925Z,40.15
2022-10-29T21:12:20.198Z,39.47
2022-10-29T21:14:47.642Z,35.17
2022-10-29T21:17:15.148Z,36.55
2022-10-29T21:20:00.872Z,45.22
2022-10-29T21:22:28.542Z,49.53
2022-10-29T21:24:55.727Z,40.05
2022-10-29T21:27:22.997Z,45.75
2022-10-29T21:29:50.999Z,40.92
2022-10-29T21:32:18.533Z,39.63
2022-10-29T21:34:45.927Z,36.55
2022-10-29T21:37:31.709Z,39.25
2022-10-29T21:40:01.758Z,40.28
2022-10-29T21:42:33.074Z,44.08
2022-10-29T21:45:18.660Z,35.95
2022-10-29T21:47:46.285Z,40.28
2022-10-29T21:50:13.522Z,35.78
2022-10-29T21:52:41.330Z,42.33
2022-10-29T21:55:09.152Z,33.80
2022-10-29T21:57:36.357Z,35.42
2022-10-29T22:00:06.289Z,35.88
2022-10-29T22:02:33.805Z,33.45
2022-10-29T22:05:01.311Z,32.05
2022-10-29T22:07:28.778Z,39.92
2022-10-29T22:09:56.295Z,40.67
2022-10-29T22:12:23.509Z,41.40
2022-10-29T22:14:50.858Z,37.40
2022-10-29T22:17:36.495Z,44.30
2022-10-29T22:20:05.101Z,41.00
2022-10-29T22:22:32.306Z,38.45
2022-10-29T22:25:17.890Z,43.53
2022-10-29T22:28:03.530Z,41.42
2022-10-29T22:30:48.954Z,39.70
2022-10-29T22:33:16.490Z,43.45
2022-10-29T22:35:43.634Z,40.97
2022-10-29T22:38:29.121Z,45.95
2022-10-29T22:40:56.556Z,73.78
2022-10-29T22:43:23.825Z,73.75
2022-10-29T22:45:51.094Z,48.35
2022-10-29T22:48:36.970Z,49.45
2022-10-29T22:51:07.032Z,48.30
2022-10-29T22:53:34.553Z,43.33
2022-10-29T22:56:02.171Z,42.47
2022-10-29T22:58:47.921Z,40.42
2022-10-29T23:01:17.839Z,48.25
2022-10-29T23:03:45.480Z,43.95
2022-10-29T23:06:19.167Z,43.97
2022-10-29T23:08:47.416Z,42.22
2022-10-29T23:11:20.461Z,41.90
2022-10-29T23:13:49.572Z,45.95
2022-10-29T23:16:16.777Z,44.95
2022-10-29T23:18:44.359Z,53.33
2022-10-29T23:21:11.839Z,46.88
2022-10-29T23:23:39.387Z,47.25
2022-10-29T23:26:06.740Z,52.17
2022-10-29T23:28:37.890Z,48.17
2022-10-29T23:31:11.980Z,42.00
2022-10-29T23:33:44.111Z,44.17
2022-10-29T23:36:11.821Z,51.47
2022-10-29T23:38:39.238Z,44.15
2022-10-29T23:41:06.957Z,42.30
2022-10-29T23:43:52.449Z,38.55
2022-10-29T23:46:38.166Z,43.58
2022-10-29T23:49:05.623Z,42.85
2022-10-29T23:54:00.140Z,152.70
2022-10-29T23:56:27.706Z,158.18
2022-10-29T23:58:55.101Z,101.00
